Aérodrome :
LOGIN :

S'inscrire | Disclaimer

   EN    FR    IT 

 










Légende :    VFR   VFR Marginal   IFR   IFR Intensif   IFR Très Intensif
Visi : 
Plafond : 
>= 8 km
>= 3000ft
5 à 8 km
1000 à 3000 ft
1500m à 5 km
500 à 1000 ft
800 à 1500m
200 à 500 ft
< 800m
< 200 ft
Symboles :   Orages  Brouillard  Fortes neiges  Fortes précipitations  Vent > 20 kt
SIGMETs :   Divers  Orages  Givrage  Turbulence  Onde Orograph.  Cendres Volcan.






- Altitude de l'aérodrome : 1046 ft
- Code IATA : NUE


EDDN - Nuremberg

DERNIER METAR :
  • 171750Z 10008KT 9999 BKN040 05/02 Q1019 NOSIG

METARs EXPIRÉS :
  • 171720Z 10007KT 9999 BKN035 05/02 Q1019 NOSIG
  • 171650Z 13010KT 9999 BKN035 06/02 Q1019 NOSIG
  • 171620Z 12008KT 9999 SCT033 06/02 Q1018 NOSIG
  • 171550Z 12007KT 9999 FEW048 05/02 Q1018 NOSIG
  • 171520Z 12007KT CAVOK 06/02 Q1018 NOSIG

TAF TAF EDDN
Valide du 17 à 18h jusqu'au 18 à 18h UTC


171700Z 1718/1818 13008KT 9999 BKN030
TEMPO 1721/1803 RA BKN008
BECMG 1721/1723 19005KT
BECMG 1800/1802 26007KT
PROB30
TEMPO 1811/1818 SHRA BKN020TCU



MET'MAP, la Météo Aéronautique d'un coup d'oeil ! - Copyright ORBIFLY Décembre 2007 - Disclaimer

ORBIFLY MET'MAP TEAM :

Programmation & Développement : Alexandra Zaïnal
Sur une idée originale de : Baudouin d'Aumeries
Assistance à la programmation : Marc-Olivier Méhu
Soutien technique & logistique : Manuel Goepfert

Contact : metmap@orbifly.com




SOURCES & CREDITS :

   NOAA